PWSweather.com
Personal Weather Stations
Station Observations
KNYSYRAC2
Fairmount Hills, Fairmount, NY 13219

Fairmount HillsFairmount, NY 13219

Lat: 43.03602, Lon: -76.247151

Elevation: 663

Station Type: Ambient Weather WS-2080

http://weather.cerchia.com

High Low Average
Temperature 31.9°F-0.1°F 24.7°F-4.1°F 28.8°F-1.8°F
Dew Point 23.0°F-5.0°F 17.2°F-8.2°F 20.3°F-6.5°F
Winds 3.4 mph SE5.5 mph SE Calm Calm 1.4 mph 2.3 mph
Wind Gusts 4.5 mph7.2 mph -- 2.1 mph3.4 mph
Humidity 75% 66% 70%
Pressure 30.34 in1027.40 in 30.27 in1025.10 in -
Precipitation 0.00 in0.00 in - -
Hour Temp Dew Point Humidity Winds Wind Gusts Pressure Precip Precip Rate Daily Precip Total
12:00 AM 24.7°F-4.1°C 17.3°F-8.2°C 73% 0.5 mph SE0.8 kmh SE 2.2 mph3.5 kmh 30.28 in1025.4 mb 0.00 in0.0 mm 0.00 in/hr0.0 mm/hr 0.00 in0.0 mm
12:15 AM 24.7°F-4.1°C 17.3°F-8.2°C 73% Calm Calm 0.7 mph1.1 kmh 30.28 in1025.4 mb 0.00 in0.0 mm 0.00 in/hr0.0 mm/hr 0.00 in0.0 mm
12:30 AM 24.7°F-4.1°C 17.3°F-8.2°C 73% 0.1 mph ESE0.2 kmh ESE 0.7 mph1.1 kmh 30.28 in1025.4 mb 0.00 in0.0 mm 0.00 in/hr0.0 mm/hr 0.00 in0.0 mm
12:45 AM 24.7°F-4.1°C 17.6°F-8.0°C 74% 0.2 mph S0.3 kmh S 0.7 mph1.1 kmh 30.27 in1025.1 mb 0.00 in0.0 mm 0.00 in/hr0.0 mm/hr 0.00 in0.0 mm
01:00 AM 25.1°F-3.8°C 18.0°F-7.8°C 74% 0.9 mph SE1.4 kmh SE 1.6 mph2.6 kmh 30.28 in1025.4 mb 0.00 in0.0 mm 0.00 in/hr0.0 mm/hr 0.00 in0.0 mm
01:15 AM 25.2°F-3.8°C 17.8°F-7.9°C 73% 0.2 mph SE0.3 kmh SE 0.7 mph1.1 kmh 30.27 in1025.1 mb 0.00 in0.0 mm 0.00 in/hr0.0 mm/hr 0.00 in0.0 mm
01:30 AM 25.2°F-3.8°C 17.8°F-7.9°C 73% Calm Calm -- 30.28 in1025.4 mb 0.00 in0.0 mm 0.00 in/hr0.0 mm/hr 0.00 in0.0 mm
01:45 AM 25.2°F-3.8°C 17.8°F-7.9°C 73% 0.2 mph W0.3 kmh W 1.6 mph2.6 kmh 30.28 in1025.4 mb 0.00 in0.0 mm 0.00 in/hr0.0 mm/hr 0.00 in0.0 mm
02:00 AM 25.2°F-3.8°C 17.8°F-7.9°C 73% 1.2 mph SE1.9 kmh SE 1.6 mph2.6 kmh 30.28 in1025.4 mb 0.00 in0.0 mm 0.00 in/hr0.0 mm/hr 0.00 in0.0 mm
02:15 AM 25.8°F-3.4°C 18.0°F-7.8°C 72% 2.6 mph SE4.2 kmh SE 3.1 mph5.0 kmh 30.29 in1025.7 mb 0.00 in0.0 mm 0.00 in/hr0.0 mm/hr 0.00 in0.0 mm
02:30 AM 26.1°F-3.3°C 18.4°F-7.6°C 72% 3.1 mph SE5.0 kmh SE 3.8 mph6.1 kmh 30.29 in1025.7 mb 0.00 in0.0 mm 0.00 in/hr0.0 mm/hr 0.00 in0.0 mm
02:45 AM 26.5°F-3.1°C 18.1°F-7.7°C 70% 2.6 mph SE4.2 kmh SE 3.1 mph5.0 kmh 30.29 in1025.7 mb 0.00 in0.0 mm 0.00 in/hr0.0 mm/hr 0.00 in0.0 mm
03:00 AM 26.5°F-3.1°C 18.1°F-7.7°C 70% 3.1 mph SE5.0 kmh SE 3.1 mph5.0 kmh 30.28 in1025.4 mb 0.00 in0.0 mm 0.00 in/hr0.0 mm/hr 0.00 in0.0 mm
03:15 AM 26.7°F-2.9°C 17.9°F-7.8°C 69% 2.5 mph SE4.0 kmh SE 3.1 mph5.0 kmh 30.28 in1025.4 mb 0.00 in0.0 mm 0.00 in/hr0.0 mm/hr 0.00 in0.0 mm
03:30 AM 26.7°F-2.9°C 17.9°F-7.8°C 69% 1.9 mph SSE3.1 kmh SSE 3.1 mph5.0 kmh 30.29 in1025.7 mb 0.00 in0.0 mm 0.00 in/hr0.0 mm/hr 0.00 in0.0 mm
03:45 AM 26.5°F-3.1°C 17.7°F-7.9°C 69% 1.5 mph SE2.4 kmh SE 2.2 mph3.5 kmh 30.29 in1025.7 mb 0.00 in0.0 mm 0.00 in/hr0.0 mm/hr 0.00 in0.0 mm
04:00 AM 26.3°F-3.2°C 17.6°F-8.0°C 69% 2.2 mph SE3.5 kmh SE 3.1 mph5.0 kmh 30.29 in1025.7 mb 0.00 in0.0 mm 0.00 in/hr0.0 mm/hr 0.00 in0.0 mm
04:15 AM 26.3°F-3.2°C 17.6°F-8.0°C 69% 1.7 mph SSE2.7 kmh SSE 3.1 mph5.0 kmh 30.28 in1025.4 mb 0.00 in0.0 mm 0.00 in/hr0.0 mm/hr 0.00 in0.0 mm
04:30 AM 26.3°F-3.2°C 17.6°F-8.0°C 69% 2.2 mph SE3.5 kmh SE 3.1 mph5.0 kmh 30.29 in1025.7 mb 0.00 in0.0 mm 0.00 in/hr0.0 mm/hr 0.00 in0.0 mm
04:45 AM 26.3°F-3.2°C 17.2°F-8.2°C 68% 2.6 mph SE4.2 kmh SE 2.2 mph3.5 kmh 30.28 in1025.4 mb 0.00 in0.0 mm 0.00 in/hr0.0 mm/hr 0.00 in0.0 mm
05:00 AM 26.3°F-3.2°C 17.2°F-8.2°C 68% 2.6 mph SE4.2 kmh SE 3.1 mph5.0 kmh 30.28 in1025.4 mb 0.00 in0.0 mm 0.00 in/hr0.0 mm/hr 0.00 in0.0 mm
05:15 AM 26.3°F-3.2°C 17.2°F-8.2°C 68% 2.3 mph SE3.7 kmh SE 2.2 mph3.5 kmh 30.28 in1025.4 mb 0.00 in0.0 mm 0.00 in/hr0.0 mm/hr 0.00 in0.0 mm
05:30 AM 26.3°F-3.2°C 17.2°F-8.2°C 68% 2.0 mph SE3.2 kmh SE 2.2 mph3.5 kmh 30.29 in1025.7 mb 0.00 in0.0 mm 0.00 in/hr0.0 mm/hr 0.00 in0.0 mm
05:45 AM 26.3°F-3.2°C 17.6°F-8.0°C 69% 1.9 mph SE3.1 kmh SE 2.2 mph3.5 kmh 30.29 in1025.7 mb 0.00 in0.0 mm 0.00 in/hr0.0 mm/hr 0.00 in0.0 mm
06:00 AM 26.3°F-3.2°C 17.6°F-8.0°C 69% 2.0 mph SE3.2 kmh SE 2.2 mph3.5 kmh 30.29 in1025.7 mb 0.00 in0.0 mm 0.00 in/hr0.0 mm/hr 0.00 in0.0 mm
06:15 AM 26.5°F-3.1°C 17.7°F-7.9°C 69% 1.6 mph SE2.6 kmh SE 1.6 mph2.6 kmh 30.30 in1026.1 mb 0.00 in0.0 mm 0.00 in/hr0.0 mm/hr 0.00 in0.0 mm
06:30 AM 26.5°F-3.1°C 17.7°F-7.9°C 69% 1.7 mph SSE2.7 kmh SSE 2.2 mph3.5 kmh 30.29 in1025.7 mb 0.00 in0.0 mm 0.00 in/hr0.0 mm/hr 0.00 in0.0 mm
06:45 AM 26.5°F-3.1°C 17.7°F-7.9°C 69% 1.9 mph SSE3.1 kmh SSE 3.1 mph5.0 kmh 30.29 in1025.7 mb 0.00 in0.0 mm 0.00 in/hr0.0 mm/hr 0.00 in0.0 mm
07:00 AM 26.5°F-3.1°C 17.7°F-7.9°C 69% 2.9 mph SE4.7 kmh SE 3.1 mph5.0 kmh 30.30 in1026.1 mb 0.00 in0.0 mm 0.00 in/hr0.0 mm/hr 0.00 in0.0 mm
07:15 AM 26.7°F-2.9°C 17.9°F-7.8°C 69% 3.4 mph SE5.5 kmh SE 3.8 mph6.1 kmh 30.30 in1026.1 mb 0.00 in0.0 mm 0.00 in/hr0.0 mm/hr 0.00 in0.0 mm
07:30 AM 26.7°F-2.9°C 17.9°F-7.8°C 69% 2.7 mph SE4.3 kmh SE 3.8 mph6.1 kmh 30.31 in1026.4 mb 0.00 in0.0 mm 0.00 in/hr0.0 mm/hr 0.00 in0.0 mm
07:45 AM 26.7°F-2.9°C 17.9°F-7.8°C 69% 3.3 mph SSE5.3 kmh SSE 4.5 mph7.2 kmh 30.31 in1026.4 mb 0.00 in0.0 mm 0.00 in/hr0.0 mm/hr 0.00 in0.0 mm
08:00 AM 26.7°F-2.9°C 17.9°F-7.8°C 69% 3.3 mph SSE5.3 kmh SSE 3.8 mph6.1 kmh 30.31 in1026.4 mb 0.00 in0.0 mm 0.00 in/hr0.0 mm/hr 0.00 in0.0 mm
08:15 AM 26.9°F-2.8°C 18.1°F-7.7°C 69% 2.8 mph SE4.5 kmh SE 3.8 mph6.1 kmh 30.31 in1026.4 mb 0.00 in0.0 mm 0.00 in/hr0.0 mm/hr 0.00 in0.0 mm
08:30 AM 27.0°F-2.8°C 18.3°F-7.6°C 69% 2.3 mph SSE3.7 kmh SSE 3.1 mph5.0 kmh 30.31 in1026.4 mb 0.00 in0.0 mm 0.00 in/hr0.0 mm/hr 0.00 in0.0 mm
08:45 AM 27.2°F-2.7°C 18.4°F-7.6°C 69% 2.3 mph SE3.7 kmh SE 3.1 mph5.0 kmh 30.32 in1026.8 mb 0.00 in0.0 mm 0.00 in/hr0.0 mm/hr 0.00 in0.0 mm
09:00 AM 27.6°F-2.4°C 20.1°F-6.6°C 73% 2.4 mph SE3.9 kmh SE 4.5 mph7.2 kmh 30.32 in1026.8 mb 0.00 in0.0 mm 0.00 in/hr0.0 mm/hr 0.00 in0.0 mm
09:15 AM 28.1°F-2.2°C 20.6°F-6.3°C 73% 1.5 mph SSE2.4 kmh SSE 2.2 mph3.5 kmh 30.32 in1026.8 mb 0.00 in0.0 mm 0.00 in/hr0.0 mm/hr 0.00 in0.0 mm
09:30 AM 28.5°F-1.9°C 21.0°F-6.1°C 73% 2.8 mph SSW4.5 kmh SSW 4.5 mph7.2 kmh 30.33 in1027.1 mb 0.00 in0.0 mm 0.00 in/hr0.0 mm/hr 0.00 in0.0 mm
09:45 AM 28.8°F-1.8°C 21.3°F-5.9°C 73% 1.4 mph SSW2.3 kmh SSW 2.2 mph3.5 kmh 30.33 in1027.1 mb 0.00 in0.0 mm 0.00 in/hr0.0 mm/hr 0.00 in0.0 mm
10:00 AM 29.4°F-1.4°C 21.5°F-5.8°C 72% 1.2 mph WSW1.9 kmh WSW 2.2 mph3.5 kmh 30.33 in1027.1 mb 0.00 in0.0 mm 0.00 in/hr0.0 mm/hr 0.00 in0.0 mm
10:15 AM 29.9°F-1.2°C 21.7°F-5.7°C 71% 1.9 mph WSW3.1 kmh WSW 3.8 mph6.1 kmh 30.34 in1027.4 mb 0.00 in0.0 mm 0.00 in/hr0.0 mm/hr 0.00 in0.0 mm
10:30 AM 30.1°F-1.1°C 21.9°F-5.6°C 71% 2.0 mph SSW3.2 kmh SSW 3.1 mph5.0 kmh 30.34 in1027.4 mb 0.00 in0.0 mm 0.00 in/hr0.0 mm/hr 0.00 in0.0 mm
10:45 AM 30.1°F-1.1°C 21.9°F-5.6°C 71% 2.4 mph WSW3.9 kmh WSW 3.1 mph5.0 kmh 30.34 in1027.4 mb 0.00 in0.0 mm 0.00 in/hr0.0 mm/hr 0.00 in0.0 mm
11:00 AM 30.5°F-0.8°C 21.9°F-5.6°C 70% 1.7 mph SW2.7 kmh SW 3.8 mph6.1 kmh 30.33 in1027.1 mb 0.00 in0.0 mm 0.00 in/hr0.0 mm/hr 0.00 in0.0 mm
11:15 AM 31.0°F-0.6°C 22.1°F-5.5°C 69% 2.2 mph WSW3.5 kmh WSW 3.8 mph6.1 kmh 30.33 in1027.1 mb 0.00 in0.0 mm 0.00 in/hr0.0 mm/hr 0.00 in0.0 mm
11:30 AM 31.0°F-0.6°C 21.7°F-5.7°C 68% 1.8 mph SE2.9 kmh SE 4.5 mph7.2 kmh 30.32 in1026.8 mb 0.00 in0.0 mm 0.00 in/hr0.0 mm/hr 0.00 in0.0 mm
11:45 AM 31.4°F-0.3°C 22.1°F-5.5°C 68% 2.4 mph WSW3.9 kmh WSW 4.5 mph7.2 kmh 30.32 in1026.8 mb 0.00 in0.0 mm 0.00 in/hr0.0 mm/hr 0.00 in0.0 mm
12:00 PM 31.4°F-0.3°C 21.7°F-5.7°C 67% 2.4 mph WSW3.9 kmh WSW 3.1 mph5.0 kmh 30.32 in1026.8 mb 0.00 in0.0 mm 0.00 in/hr0.0 mm/hr 0.00 in0.0 mm
12:15 PM 31.5°F-0.3°C 21.9°F-5.6°C 67% 1.9 mph W3.1 kmh W 3.1 mph5.0 kmh 30.31 in1026.4 mb 0.00 in0.0 mm 0.00 in/hr0.0 mm/hr 0.00 in0.0 mm
12:30 PM 31.7°F-0.2°C 21.7°F-5.7°C 66% 1.7 mph WSW2.7 kmh WSW 3.1 mph5.0 kmh 30.30 in1026.1 mb 0.00 in0.0 mm 0.00 in/hr0.0 mm/hr 0.00 in0.0 mm
12:45 PM 31.7°F-0.2°C 21.7°F-5.7°C 66% 2.0 mph W3.2 kmh W 3.1 mph5.0 kmh 30.30 in1026.1 mb 0.00 in0.0 mm 0.00 in/hr0.0 mm/hr 0.00 in0.0 mm
01:00 PM 31.9°F-0.1°C 21.9°F-5.6°C 66% 2.3 mph WNW3.7 kmh WNW 3.8 mph6.1 kmh 30.30 in1026.1 mb 0.00 in0.0 mm 0.00 in/hr0.0 mm/hr 0.00 in0.0 mm
01:15 PM 31.7°F-0.2°C 21.7°F-5.7°C 66% 2.1 mph SW3.4 kmh SW 3.1 mph5.0 kmh 30.30 in1026.1 mb 0.00 in0.0 mm 0.00 in/hr0.0 mm/hr 0.00 in0.0 mm
01:30 PM 31.7°F-0.2°C 21.7°F-5.7°C 66% 1.5 mph SSW2.4 kmh SSW 3.1 mph5.0 kmh 30.30 in1026.1 mb 0.00 in0.0 mm 0.00 in/hr0.0 mm/hr 0.00 in0.0 mm
01:45 PM 31.7°F-0.2°C 21.7°F-5.7°C 66% 0.8 mph NW1.3 kmh NW 1.6 mph2.6 kmh 30.30 in1026.1 mb 0.00 in0.0 mm 0.00 in/hr0.0 mm/hr 0.00 in0.0 mm
02:00 PM 31.5°F-0.3°C 21.5°F-5.8°C 66% 1.7 mph NNW2.7 kmh NNW 2.2 mph3.5 kmh 30.30 in1026.1 mb 0.00 in0.0 mm 0.00 in/hr0.0 mm/hr 0.00 in0.0 mm
02:15 PM 31.4°F-0.3°C 21.3°F-5.9°C 66% 1.1 mph N1.8 kmh N 1.6 mph2.6 kmh 30.30 in1026.1 mb 0.00 in0.0 mm 0.00 in/hr0.0 mm/hr 0.00 in0.0 mm
02:30 PM 31.4°F-0.3°C 21.3°F-5.9°C 66% 1.0 mph N1.6 kmh N 2.2 mph3.5 kmh 30.29 in1025.7 mb 0.00 in0.0 mm 0.00 in/hr0.0 mm/hr 0.00 in0.0 mm
02:45 PM 31.2°F-0.4°C 21.2°F-6.0°C 66% 0.7 mph N1.1 kmh N 1.6 mph2.6 kmh 30.29 in1025.7 mb 0.00 in0.0 mm 0.00 in/hr0.0 mm/hr 0.00 in0.0 mm
03:00 PM 31.4°F-0.3°C 21.7°F-5.7°C 67% 0.7 mph N1.1 kmh N 1.6 mph2.6 kmh 30.29 in1025.7 mb 0.00 in0.0 mm 0.00 in/hr0.0 mm/hr 0.00 in0.0 mm
03:15 PM 31.2°F-0.4°C 21.5°F-5.8°C 67% 1.7 mph N2.7 kmh N 2.2 mph3.5 kmh 30.29 in1025.7 mb 0.00 in0.0 mm 0.00 in/hr0.0 mm/hr 0.00 in0.0 mm
03:30 PM 31.0°F-0.6°C 21.7°F-5.7°C 68% 0.8 mph N1.3 kmh N 1.6 mph2.6 kmh 30.30 in1026.1 mb 0.00 in0.0 mm 0.00 in/hr0.0 mm/hr 0.00 in0.0 mm
03:45 PM 31.0°F-0.6°C 21.7°F-5.7°C 68% 0.9 mph NW1.4 kmh NW 1.6 mph2.6 kmh 30.30 in1026.1 mb 0.00 in0.0 mm 0.00 in/hr0.0 mm/hr 0.00 in0.0 mm
04:00 PM 30.8°F-0.7°C 21.9°F-5.6°C 69% Calm Calm -- 30.30 in1026.1 mb 0.00 in0.0 mm 0.00 in/hr0.0 mm/hr 0.00 in0.0 mm
04:15 PM 30.6°F-0.8°C 21.7°F-5.7°C 69% Calm Calm -- 30.31 in1026.4 mb 0.00 in0.0 mm 0.00 in/hr0.0 mm/hr 0.00 in0.0 mm
04:30 PM 30.5°F-0.8°C 21.9°F-5.6°C 70% Calm Calm -- 30.32 in1026.8 mb 0.00 in0.0 mm 0.00 in/hr0.0 mm/hr 0.00 in0.0 mm
04:45 PM 30.5°F-0.8°C 21.9°F-5.6°C 70% Calm Calm -- 30.32 in1026.8 mb 0.00 in0.0 mm 0.00 in/hr0.0 mm/hr 0.00 in0.0 mm
05:00 PM 30.3°F-0.9°C 22.0°F-5.6°C 71% Calm Calm -- 30.32 in1026.8 mb 0.00 in0.0 mm 0.00 in/hr0.0 mm/hr 0.00 in0.0 mm
05:15 PM 30.1°F-1.1°C 21.9°F-5.6°C 71% Calm Calm -- 30.31 in1026.4 mb 0.00 in0.0 mm 0.00 in/hr0.0 mm/hr 0.00 in0.0 mm
05:30 PM 30.1°F-1.1°C 21.9°F-5.6°C 71% Calm Calm -- 30.32 in1026.8 mb 0.00 in0.0 mm 0.00 in/hr0.0 mm/hr 0.00 in0.0 mm
05:45 PM 30.1°F-1.1°C 21.9°F-5.6°C 71% 0.7 mph N1.1 kmh N 1.6 mph2.6 kmh 30.32 in1026.8 mb 0.00 in0.0 mm 0.00 in/hr0.0 mm/hr 0.00 in0.0 mm
06:00 PM 30.1°F-1.1°C 22.2°F-5.4°C 72% 0.3 mph N0.5 kmh N 1.6 mph2.6 kmh 30.33 in1027.1 mb 0.00 in0.0 mm 0.00 in/hr0.0 mm/hr 0.00 in0.0 mm
06:15 PM 29.9°F-1.2°C 22.0°F-5.6°C 72% Calm Calm -- 30.33 in1027.1 mb 0.00 in0.0 mm 0.00 in/hr0.0 mm/hr 0.00 in0.0 mm
06:30 PM 29.7°F-1.3°C 21.8°F-5.7°C 72% Calm Calm 0.7 mph1.1 kmh 30.33 in1027.1 mb 0.00 in0.0 mm 0.00 in/hr0.0 mm/hr 0.00 in0.0 mm
06:45 PM 29.9°F-1.2°C 22.3°F-5.4°C 73% 0.6 mph SE1.0 kmh SE 1.6 mph2.6 kmh 30.33 in1027.1 mb 0.00 in0.0 mm 0.00 in/hr0.0 mm/hr 0.00 in0.0 mm
07:00 PM 30.1°F-1.1°C 22.5°F-5.3°C 73% 0.8 mph SE1.3 kmh SE 1.6 mph2.6 kmh 30.33 in1027.1 mb 0.00 in0.0 mm 0.00 in/hr0.0 mm/hr 0.00 in0.0 mm
07:15 PM 30.1°F-1.1°C 22.8°F-5.1°C 74% Calm Calm -- 30.33 in1027.1 mb 0.00 in0.0 mm 0.00 in/hr0.0 mm/hr 0.00 in0.0 mm
07:30 PM 29.9°F-1.2°C 22.7°F-5.2°C 74% Calm Calm -- 30.33 in1027.1 mb 0.00 in0.0 mm 0.00 in/hr0.0 mm/hr 0.00 in0.0 mm
07:45 PM 29.7°F-1.3°C 22.5°F-5.3°C 74% Calm Calm -- 30.33 in1027.1 mb 0.00 in0.0 mm 0.00 in/hr0.0 mm/hr 0.00 in0.0 mm
08:00 PM 29.7°F-1.3°C 22.5°F-5.3°C 74% Calm Calm -- 30.33 in1027.1 mb 0.00 in0.0 mm 0.00 in/hr0.0 mm/hr 0.00 in0.0 mm
08:15 PM 29.7°F-1.3°C 22.5°F-5.3°C 74% Calm Calm -- 30.33 in1027.1 mb 0.00 in0.0 mm 0.00 in/hr0.0 mm/hr 0.00 in0.0 mm
08:30 PM 29.7°F-1.3°C 22.8°F-5.1°C 75% Calm Calm -- 30.34 in1027.4 mb 0.00 in0.0 mm 0.00 in/hr0.0 mm/hr 0.00 in0.0 mm
08:45 PM 29.7°F-1.3°C 22.8°F-5.1°C 75% Calm Calm -- 30.33 in1027.1 mb 0.00 in0.0 mm 0.00 in/hr0.0 mm/hr 0.00 in0.0 mm
09:00 PM 29.9°F-1.2°C 23.0°F-5.0°C 75% Calm Calm -- 30.33 in1027.1 mb 0.00 in0.0 mm 0.00 in/hr0.0 mm/hr 0.00 in0.0 mm
09:15 PM 29.9°F-1.2°C 22.7°F-5.2°C 74% 0.5 mph SE0.8 kmh SE 1.6 mph2.6 kmh 30.34 in1027.4 mb 0.00 in0.0 mm 0.00 in/hr0.0 mm/hr 0.00 in0.0 mm
09:30 PM 30.1°F-1.1°C 22.8°F-5.1°C 74% 1.2 mph SSE1.9 kmh SSE 1.6 mph2.6 kmh 30.34 in1027.4 mb 0.00 in0.0 mm 0.00 in/hr0.0 mm/hr 0.00 in0.0 mm
09:45 PM 30.1°F-1.1°C 22.5°F-5.3°C 73% 1.4 mph S2.3 kmh S 1.6 mph2.6 kmh 30.33 in1027.1 mb 0.00 in0.0 mm 0.00 in/hr0.0 mm/hr 0.00 in0.0 mm
10:00 PM 30.1°F-1.1°C 22.2°F-5.4°C 72% 1.1 mph SSE1.8 kmh SSE 2.2 mph3.5 kmh 30.34 in1027.4 mb 0.00 in0.0 mm 0.00 in/hr0.0 mm/hr 0.00 in0.0 mm
10:15 PM 30.1°F-1.1°C 21.9°F-5.6°C 71% 1.6 mph SE2.6 kmh SE 2.2 mph3.5 kmh 30.34 in1027.4 mb 0.00 in0.0 mm 0.00 in/hr0.0 mm/hr 0.00 in0.0 mm
10:30 PM 30.1°F-1.1°C 21.9°F-5.6°C 71% 1.8 mph SE2.9 kmh SE 3.1 mph5.0 kmh 30.33 in1027.1 mb 0.00 in0.0 mm 0.00 in/hr0.0 mm/hr 0.00 in0.0 mm
10:45 PM 30.1°F-1.1°C 21.5°F-5.8°C 70% 0.4 mph SE0.6 kmh SE 2.2 mph3.5 kmh 30.34 in1027.4 mb 0.00 in0.0 mm 0.00 in/hr0.0 mm/hr 0.00 in0.0 mm
11:00 PM 30.1°F-1.1°C 21.5°F-5.8°C 70% 0.7 mph E1.1 kmh E 1.6 mph2.6 kmh 30.33 in1027.1 mb 0.00 in0.0 mm 0.00 in/hr0.0 mm/hr 0.00 in0.0 mm
11:15 PM 30.1°F-1.1°C 21.5°F-5.8°C 70% 0.7 mph E1.1 kmh E 1.6 mph2.6 kmh 30.32 in1026.8 mb 0.00 in0.0 mm 0.00 in/hr0.0 mm/hr 0.00 in0.0 mm
11:30 PM 30.1°F-1.1°C 21.2°F-6.0°C 69% 1.6 mph E2.6 kmh E 2.2 mph3.5 kmh 30.32 in1026.8 mb 0.00 in0.0 mm 0.00 in/hr0.0 mm/hr 0.00 in0.0 mm
11:45 PM 29.9°F-1.2°C 21.0°F-6.1°C 69% 2.4 mph SE3.9 kmh SE 3.8 mph6.1 kmh 30.32 in1026.8 mb 0.00 in0.0 mm 0.00 in/hr0.0 mm/hr 0.00 in0.0 mm